Time;durP1;ratioP1;P1;durP2;ratioP2;P2;SDS_P1;SDS_P2;PMS_P1;PMS_P2;Temp;Humidity;BMP_temperature;BMP_pressure;BME280_temperature;BME280_humidity;BME280_pressure;Samples;Min_cycle;Max_cycle;Signal;HPM_P1;HPM_P2
2024/01/31 00:01:05;;;;;;;13.17;6.83;;;;;;;-0.47;100.00;102566.56;5003126;28;20041;-66
2024/01/31 00:03:31;;;;;;;13.27;7.20;;;;;;;-0.47;100.00;102559.88;5007721;28;20076;-65
2024/01/31 00:05:56;;;;;;;11.27;6.53;;;;;;;-0.43;100.00;102559.47;5008886;28;20025;-68
2024/01/31 00:08:22;;;;;;;14.10;7.20;;;;;;;-0.76;100.00;102495.63;5007671;28;20038;-65
2024/01/31 00:10:48;;;;;;;14.17;6.73;;;;;;;-0.42;100.00;102552.78;5009889;28;20025;-67
2024/01/31 00:13:13;;;;;;;12.20;6.87;;;;;;;-0.38;100.00;102554.94;5008759;28;20409;-66
2024/01/31 00:15:39;;;;;;;13.93;6.67;;;;;;;-0.37;100.00;102556.75;5009069;28;20066;-66
2024/01/31 00:18:04;;;;;;;10.83;6.23;;;;;;;-0.36;100.00;102559.47;5008675;28;20050;-65
2024/01/31 00:20:30;;;;;;;11.57;6.70;;;;;;;-0.30;100.00;102559.22;5008718;28;20114;-65
2024/01/31 00:22:56;;;;;;;15.60;7.13;;;;;;;-0.28;100.00;102567.06;5009315;28;20456;-64
2024/01/31 00:25:21;;;;;;;14.53;6.87;;;;;;;-0.31;100.00;102567.59;5012472;28;20508;-65
2024/01/31 00:27:47;;;;;;;13.60;7.13;;;;;;;-0.28;100.00;102567.94;5011614;28;20084;-65
2024/01/31 00:30:13;;;;;;;11.37;6.30;;;;;;;-0.36;100.00;102543.34;5012196;28;20037;-66
2024/01/31 00:32:38;;;;;;;13.60;7.30;;;;;;;-0.10;100.00;102571.69;5012036;28;20033;-66
2024/01/31 00:35:04;;;;;;;11.67;6.30;;;;;;;0.01;100.00;102574.53;5011128;28;20033;-67
2024/01/31 00:37:30;;;;;;;11.50;6.57;;;;;;;0.18;100.00;102571.38;5011894;28;20064;-66
2024/01/31 00:39:55;;;;;;;12.90;6.67;;;;;;;0.28;100.00;102572.56;5012344;28;20026;-65
2024/01/31 00:42:21;;;;;;;12.70;6.47;;;;;;;0.23;100.00;102570.25;5011848;28;20034;-70
2024/01/31 00:44:46;;;;;;;13.17;6.73;;;;;;;0.26;100.00;102568.03;5011530;28;20041;-66
2024/01/31 00:47:13;;;;;;;13.30;7.30;;;;;;;0.17;100.00;102559.41;5012096;28;20075;-65
2024/01/31 00:49:39;;;;;;;12.10;6.37;;;;;;;0.29;100.00;102568.41;5011865;28;20061;-66
2024/01/31 00:52:05;;;;;;;12.30;7.10;;;;;;;0.32;100.00;102573.81;4990137;28;20062;-66
2024/01/31 00:54:30;;;;;;;12.77;6.93;;;;;;;0.37;100.00;102565.06;4989671;28;20628;-66
2024/01/31 00:56:56;;;;;;;11.93;6.63;;;;;;;0.29;100.00;102569.28;4989597;28;20133;-66
2024/01/31 00:59:21;;;;;;;11.63;6.87;;;;;;;0.30;100.00;102565.13;4989269;28;20085;-65
2024/01/31 01:01:47;;;;;;;12.80;7.00;;;;;;;0.35;100.00;102564.00;4989311;28;20065;-66
2024/01/31 01:04:12;;;;;;;13.23;7.40;;;;;;;0.36;99.88;102549.66;4989228;28;20041;-67
2024/01/31 01:06:41;;;;;;;12.50;7.60;;;;;;;0.43;100.00;102560.66;4990104;28;20042;-67
2024/01/31 01:09:07;;;;;;;12.67;6.43;;;;;;;-0.07;100.00;102478.06;4972960;28;20513;-68
2024/01/31 01:11:32;;;;;;;12.47;7.00;;;;;;;0.15;100.00;102526.22;4989182;28;20086;-67
2024/01/31 01:13:58;;;;;;;13.10;6.73;;;;;;;0.35;100.00;102548.75;4973080;28;20057;-66
2024/01/31 01:16:24;;;;;;;12.93;7.10;;;;;;;0.38;100.00;102548.19;4989995;28;20038;-65
2024/01/31 01:18:49;;;;;;;13.27;7.03;;;;;;;0.43;100.00;102550.50;4989038;28;20038;-65
2024/01/31 01:21:15;;;;;;;11.70;6.70;;;;;;;0.53;100.00;102557.50;4989037;28;20126;-69
2024/01/31 01:23:40;;;;;;;13.13;6.83;;;;;;;0.56;99.51;102562.03;4976475;28;20085;-64
2024/01/31 01:26:06;;;;;;;12.37;7.10;;;;;;;0.40;99.66;102534.00;5011669;28;20071;-71
2024/01/31 01:28:31;;;;;;;14.60;6.97;;;;;;;0.52;100.00;102549.72;5010967;28;20026;-65
2024/01/31 01:30:57;;;;;;;12.57;7.20;;;;;;;0.56;99.84;102544.22;5010739;28;20061;-65
2024/01/31 01:33:22;;;;;;;12.60;7.20;;;;;;;0.53;99.86;102547.34;5011352;28;20036;-66
2024/01/31 01:35:48;;;;;;;14.30;7.00;;;;;;;0.43;99.76;102527.63;5010642;28;20026;-67
2024/01/31 01:38:13;;;;;;;10.97;6.37;;;;;;;0.58;99.70;102540.22;5010838;28;20037;-66
2024/01/31 01:40:43;;;;;;;16.07;7.57;;;;;;;0.57;100.00;102533.34;5011411;28;20033;-67
2024/01/31 01:43:19;;;;;;;12.37;7.00;;;;;;;0.20;100.00;102501.31;5010784;28;20026;-66
2024/01/31 01:45:44;;;;;;;12.87;7.30;;;;;;;0.36;100.00;102536.94;5010733;28;20037;-65
2024/01/31 01:48:18;;;;;;;13.33;7.23;;;;;;;0.37;100.00;102536.22;5010609;28;20033;-65
2024/01/31 01:50:45;;;;;;;12.00;7.03;;;;;;;0.35;100.00;102532.59;5010768;28;20037;-67
2024/01/31 01:53:11;;;;;;;17.63;8.40;;;;;;;-0.08;100.00;102460.13;5010366;28;20413;-67
2024/01/31 01:55:38;;;;;;;34.20;13.47;;;;;;;0.28;100.00;102531.00;5010254;28;20025;-67
2024/01/31 01:58:04;;;;;;;82.33;28.90;;;;;;;0.29;99.91;102525.22;5010739;28;20512;-65
2024/01/31 02:00:32;;;;;;;16.57;8.03;;;;;;;0.30;99.41;102527.91;5011056;28;20474;-67
2024/01/31 02:02:59;;;;;;;13.10;6.83;;;;;;;0.18;99.65;102531.63;4992289;28;20091;-66
2024/01/31 02:05:25;;;;;;;13.33;6.63;;;;;;;0.13;100.00;102532.75;5010104;28;20026;-66
2024/01/31 02:07:51;;;;;;;12.70;6.10;;;;;;;-0.04;100.00;102518.16;5010076;28;20029;-64
2024/01/31 02:10:17;;;;;;;11.03;6.13;;;;;;;0.01;100.00;102529.72;5010438;28;20798;-65
2024/01/31 02:12:43;;;;;;;10.70;5.73;;;;;;;0.04;100.00;102527.53;5010362;28;20084;-65
2024/01/31 02:15:09;;;;;;;12.33;6.70;;;;;;;0.07;100.00;102522.78;5010342;28;20199;-67
2024/01/31 02:17:35;;;;;;;11.40;6.70;;;;;;;-0.04;100.00;102526.69;5010316;28;20088;-66
2024/01/31 02:20:01;;;;;;;12.10;6.07;;;;;;;-0.18;100.00;102521.66;5009962;28;20493;-67
2024/01/31 02:22:26;;;;;;;10.47;6.03;;;;;;;-0.42;100.00;102522.34;5010059;28;20087;-68
2024/01/31 02:24:52;;;;;;;11.07;5.77;;;;;;;-0.65;100.00;102505.34;5010414;28;20052;-66
2024/01/31 02:27:17;;;;;;;11.23;6.60;;;;;;;-0.55;100.00;102526.00;5010169;28;20040;-65
2024/01/31 02:29:43;;;;;;;9.70;5.97;;;;;;;-0.62;100.00;102507.34;5009744;28;20108;-66
2024/01/31 02:32:09;;;;;;;12.50;6.63;;;;;;;-0.45;100.00;102520.31;5009908;28;20489;-66
2024/01/31 02:34:35;;;;;;;12.80;7.10;;;;;;;-0.34;100.00;102529.16;5010352;28;20029;-66
2024/01/31 02:37:00;;;;;;;44.37;18.27;;;;;;;-0.21;100.00;102517.16;5009408;28;20413;-65
2024/01/31 02:39:26;;;;;;;38.30;18.90;;;;;;;-0.07;100.00;102515.28;5009535;28;20782;-67
2024/01/31 02:41:54;;;;;;;53.43;24.13;;;;;;;-0.02;99.95;102515.03;5009996;28;20032;-65
2024/01/31 02:44:20;;;;;;;28.53;15.40;;;;;;;-0.44;99.34;102422.28;5009521;28;20045;-65
2024/01/31 02:46:46;;;;;;;20.23;10.23;;;;;;;0.10;99.36;102505.38;5010415;28;20109;-65
2024/01/31 02:49:11;;;;;;;12.07;6.90;;;;;;;0.02;98.79;102508.66;5009685;28;20165;-66
2024/01/31 02:51:37;;;;;;;17.80;9.50;;;;;;;-0.08;100.00;102505.84;5009395;28;20030;-66
2024/01/31 02:54:02;;;;;;;14.90;8.53;;;;;;;-0.34;100.00;102501.25;5009381;28;20033;-65
2024/01/31 02:56:28;;;;;;;12.57;7.20;;;;;;;-0.74;100.00;102502.66;5010443;28;20029;-69
2024/01/31 02:58:53;;;;;;;12.73;6.87;;;;;;;-0.82;100.00;102509.41;5009524;28;20037;-67
2024/01/31 03:01:19;;;;;;;12.87;7.03;;;;;;;-0.85;100.00;102504.00;5009661;28;20045;-66
2024/01/31 03:03:45;;;;;;;12.33;6.30;;;;;;;-0.76;100.00;102505.75;5009297;28;20037;-67
2024/01/31 03:06:11;;;;;;;10.07;5.63;;;;;;;-0.94;100.00;102487.69;5008870;28;20113;-67
2024/01/31 03:08:36;;;;;;;9.87;5.50;;;;;;;-0.82;100.00;102505.97;5009372;28;20036;-67
2024/01/31 03:11:02;;;;;;;12.20;6.30;;;;;;;-0.80;100.00;102508.69;5010138;28;20045;-65
2024/01/31 03:13:27;;;;;;;11.93;6.13;;;;;;;-0.95;100.00;102468.13;5009391;28;20032;-67
2024/01/31 03:15:53;;;;;;;12.53;6.77;;;;;;;-0.71;100.00;102502.13;5009280;28;20033;-66
2024/01/31 03:18:18;;;;;;;12.03;6.70;;;;;;;-0.68;100.00;102487.25;4990458;28;20050;-66
2024/01/31 03:20:44;;;;;;;9.83;5.43;;;;;;;-0.64;100.00;102484.34;5009101;28;20037;-67
2024/01/31 03:23:09;;;;;;;11.57;5.97;;;;;;;-0.64;100.00;102496.13;5008842;28;20508;-66
2024/01/31 03:25:35;;;;;;;8.43;4.90;;;;;;;-0.91;100.00;102482.06;5009727;28;20033;-66
2024/01/31 03:28:01;;;;;;;8.97;5.43;;;;;;;-1.06;100.00;102487.19;5008881;28;20046;-66
2024/01/31 03:30:27;;;;;;;9.60;5.77;;;;;;;-1.44;100.00;102419.38;5010198;28;20103;-65
2024/01/31 03:32:53;;;;;;;10.97;5.77;;;;;;;-0.98;100.00;102488.09;4990597;28;20089;-67
2024/01/31 03:35:18;;;;;;;12.13;6.30;;;;;;;-0.91;100.00;102494.75;5008888;28;20034;-67
2024/01/31 03:37:44;;;;;;;10.47;5.93;;;;;;;-0.91;100.00;102479.53;5009167;28;20030;-65
2024/01/31 03:40:10;;;;;;;10.93;5.40;;;;;;;-0.82;100.00;102486.56;5009052;28;20026;-66
2024/01/31 03:42:36;;;;;;;10.77;6.00;;;;;;;-0.87;100.00;102461.44;5009158;28;20026;-65
2024/01/31 03:45:03;;;;;;;11.10;5.57;;;;;;;-0.64;100.00;102491.94;5008608;28;20030;-65
2024/01/31 03:47:30;;;;;;;10.43;5.97;;;;;;;-0.70;100.00;102483.63;5009213;28;20194;-66
2024/01/31 03:49:55;;;;;;;9.53;5.33;;;;;;;-0.83;100.00;102471.19;5007518;28;20034;-68
2024/01/31 03:52:21;;;;;;;9.57;5.40;;;;;;;-0.84;100.00;102482.94;5009184;28;20053;-65
2024/01/31 03:54:46;;;;;;;9.33;5.23;;;;;;;-0.94;100.00;102476.66;5010857;28;20393;-68
2024/01/31 03:57:12;;;;;;;10.00;5.83;;;;;;;-0.97;100.00;102482.28;5009571;28;20042;-65
2024/01/31 03:59:37;;;;;;;9.23;5.30;;;;;;;-1.09;100.00;102458.94;5011829;28;20072;-66
2024/01/31 04:02:03;;;;;;;10.13;5.63;;;;;;;-1.07;100.00;102477.78;5012988;28;20064;-65
2024/01/31 04:04:28;;;;;;;10.40;5.90;;;;;;;-1.40;100.00;102447.78;5011972;28;20033;-65
2024/01/31 04:06:54;;;;;;;9.77;5.70;;;;;;;-1.17;100.00;102467.31;5012526;28;20497;-66
2024/01/31 04:09:19;;;;;;;7.80;5.10;;;;;;;-1.07;100.00;102481.94;5012202;28;20105;-65
2024/01/31 04:11:45;;;;;;;11.07;5.80;;;;;;;-1.18;100.00;102458.78;5012559;28;20034;-68
2024/01/31 04:14:10;;;;;;;11.90;6.30;;;;;;;-1.12;100.00;102488.09;5012979;28;20063;-65
2024/01/31 04:16:36;;;;;;;12.27;6.43;;;;;;;-1.31;100.00;102489.41;5012162;28;20040;-67
2024/01/31 04:19:02;;;;;;;20.37;10.23;;;;;;;-1.34;100.00;102495.72;5011940;28;20068;-69
2024/01/31 04:21:28;;;;;;;32.03;15.07;;;;;;;-1.45;100.00;102485.97;5012607;28;20044;-68
2024/01/31 04:23:53;;;;;;;16.53;8.80;;;;;;;-1.32;100.00;102486.69;5012076;28;20489;-66
2024/01/31 04:26:19;;;;;;;11.60;6.67;;;;;;;-1.24;100.00;102496.06;5013081;28;20033;-69
2024/01/31 04:28:45;;;;;;;10.57;5.87;;;;;;;-1.20;100.00;102495.69;5011875;28;20056;-65
2024/01/31 04:31:14;;;;;;;10.00;5.73;;;;;;;-1.19;100.00;102479.78;5011911;28;20500;-66
2024/01/31 04:33:40;;;;;;;9.95;6.20;;;;;;;-1.10;100.00;102492.63;5011576;28;20029;-67
2024/01/31 04:36:06;;;;;;;11.60;5.47;;;;;;;-0.99;100.00;102501.47;5012369;28;20560;-66
2024/01/31 04:38:35;;;;;;;22.13;10.93;;;;;;;-1.17;100.00;102469.84;5012023;28;20032;-66
2024/01/31 04:41:03;;;;;;;26.42;12.20;;;;;;;-0.98;100.00;102501.66;5013067;28;20116;-67
2024/01/31 04:43:29;;;;;;;15.70;7.77;;;;;;;-0.96;100.00;102493.31;5010118;28;20037;-67
2024/01/31 04:45:55;;;;;;;12.23;6.30;;;;;;;-1.36;100.00;102413.56;5011705;28;20038;-69
2024/01/31 04:48:21;;;;;;;22.30;12.93;;;;;;;-0.74;100.00;102510.28;5011129;28;20030;-67
2024/01/31 04:50:47;;;;;;;13.63;8.07;;;;;;;-0.69;100.00;102503.22;5012109;28;20087;-67
2024/01/31 04:53:14;;;;;;;12.50;6.43;;;;;;;-0.62;100.00;102494.66;5011256;28;20092;-67
2024/01/31 04:55:39;;;;;;;12.57;7.30;;;;;;;-0.51;100.00;102506.97;5010115;28;20544;-67
2024/01/31 04:58:05;;;;;;;13.07;6.83;;;;;;;-0.93;100.00;102415.97;5011412;28;20021;-69
2024/01/31 05:00:31;;;;;;;11.17;6.60;;;;;;;-0.37;100.00;102495.84;5009441;28;20030;-67
2024/01/31 05:02:57;;;;;;;13.47;7.17;;;;;;;-0.77;100.00;102411.03;5011418;28;20515;-66
2024/01/31 05:05:22;;;;;;;12.60;6.33;;;;;;;-0.67;100.00;102445.97;5011371;28;20037;-67
2024/01/31 05:07:48;;;;;;;11.03;5.60;;;;;;;-0.44;100.00;102503.47;5004689;28;20025;-66
2024/01/31 05:10:14;;;;;;;10.40;6.00;;;;;;;-0.44;100.00;102508.56;5010944;28;20474;-65
2024/01/31 05:12:59;;;;;;;11.23;6.27;;;;;;;-0.44;99.97;102501.84;5010998;28;20038;-64
2024/01/31 05:15:25;;;;;;;14.43;6.17;;;;;;;-0.42;100.00;102515.63;5008560;28;20065;-65
2024/01/31 05:17:50;;;;;;;10.57;5.83;;;;;;;-0.87;100.00;102418.34;5007537;28;20204;-67
2024/01/31 05:20:16;;;;;;;12.90;6.43;;;;;;;-0.41;100.00;102504.75;5008766;28;20085;-66
2024/01/31 05:22:42;;;;;;;12.47;6.33;;;;;;;-0.86;100.00;102426.09;5008743;28;20417;-64
2024/01/31 05:25:08;;;;;;;11.20;5.83;;;;;;;-0.49;100.00;102500.41;5009027;28;20038;-70
2024/01/31 05:27:35;;;;;;;10.87;6.43;;;;;;;-1.08;100.00;102424.38;5008504;28;20045;-67
2024/01/31 05:30:03;;;;;;;12.63;6.40;;;;;;;-0.71;100.00;102509.72;5005425;28;20030;-68
2024/01/31 05:32:30;;;;;;;13.33;6.20;;;;;;;-1.04;100.00;102478.13;5008853;28;20041;-67
2024/01/31 05:34:56;;;;;;;12.23;6.13;;;;;;;-1.02;100.00;102519.78;5008745;28;20541;-65
2024/01/31 05:37:21;;;;;;;9.37;5.40;;;;;;;-1.38;99.53;102491.94;5008723;28;20033;-66
2024/01/31 05:39:47;;;;;;;10.87;6.17;;;;;;;-1.34;100.00;102521.06;5008327;28;20046;-69
2024/01/31 05:42:14;;;;;;;13.57;6.23;;;;;;;-1.39;100.00;102506.97;4990414;28;20441;-66
2024/01/31 05:44:40;;;;;;;11.07;5.80;;;;;;;-1.32;100.00;102525.59;5001394;28;20038;-67
2024/01/31 05:47:05;;;;;;;9.90;5.73;;;;;;;-1.45;100.00;102514.72;5008147;28;20042;-66
2024/01/31 05:49:31;;;;;;;13.97;6.33;;;;;;;-1.34;100.00;102528.69;5001266;28;20037;-65
2024/01/31 05:51:56;;;;;;;15.23;7.13;;;;;;;-1.28;100.00;102521.81;5008014;28;20468;-66
2024/01/31 05:54:22;;;;;;;11.73;6.60;;;;;;;-1.79;100.00;102434.78;5009969;28;20072;-67
2024/01/31 05:56:51;;;;;;;10.83;6.83;;;;;;;-1.26;100.00;102529.56;5011548;28;20052;-70
2024/01/31 05:59:16;;;;;;;12.30;7.57;;;;;;;-1.15;100.00;102537.72;5008782;28;20037;-68
2024/01/31 06:01:42;;;;;;;10.93;6.93;;;;;;;-1.38;100.00;102474.19;5007471;28;20033;-66
2024/01/31 06:04:09;;;;;;;11.80;7.57;;;;;;;-1.58;100.00;102436.41;5007537;28;20557;-65
2024/01/31 06:06:35;;;;;;;15.90;8.97;;;;;;;-0.96;100.00;102544.03;5009776;28;20121;-68
2024/01/31 06:09:03;;;;;;;16.27;10.30;;;;;;;-0.94;100.00;102525.72;5007267;28;20125;-67
2024/01/31 06:11:29;;;;;;;14.27;8.40;;;;;;;-0.87;100.00;102534.97;5001361;28;20482;-65
2024/01/31 06:13:55;;;;;;;14.07;9.07;;;;;;;-0.86;100.00;102532.59;5006580;28;20041;-69
2024/01/31 06:16:20;;;;;;;13.33;6.90;;;;;;;-0.78;99.61;102536.03;5008460;28;20466;-67
2024/01/31 06:18:46;;;;;;;11.60;6.60;;;;;;;-0.86;99.58;102527.53;5005172;28;20052;-68
2024/01/31 06:21:11;;;;;;;13.93;7.23;;;;;;;-0.83;99.55;102540.56;5008754;28;20046;-69
2024/01/31 06:23:37;;;;;;;16.20;7.83;;;;;;;-0.98;99.50;102526.09;5004559;28;20056;-70
2024/01/31 06:26:03;;;;;;;12.77;6.93;;;;;;;-1.43;99.74;102457.56;5006260;28;20030;-66
2024/01/31 06:28:28;;;;;;;17.70;6.90;;;;;;;-0.86;99.65;102536.75;5009725;28;20117;-66
2024/01/31 06:31:03;;;;;;;15.10;7.27;;;;;;;-0.88;100.00;102543.31;5005817;28;20018;-68
2024/01/31 06:33:31;;;;;;;10.33;5.50;;;;;;;-1.61;99.81;102474.00;5010308;28;20484;-68
2024/01/31 06:35:57;;;;;;;11.90;6.57;;;;;;;-1.43;100.00;102552.91;5010226;28;20101;-66
2024/01/31 06:38:24;;;;;;;13.57;5.60;;;;;;;-2.01;100.00;102513.22;5009632;28;20057;-66
2024/01/31 06:40:49;;;;;;;11.73;5.80;;;;;;;-1.88;100.00;102546.00;5008140;28;20736;-67
2024/01/31 06:43:15;;;;;;;11.73;6.47;;;;;;;-2.17;100.00;102512.09;5009036;28;20033;-66
2024/01/31 06:45:41;;;;;;;12.90;6.07;;;;;;;-1.88;100.00;102546.00;5007992;28;20025;-68
2024/01/31 06:48:08;;;;;;;11.77;6.60;;;;;;;-1.72;100.00;102542.75;5010033;28;20070;-68
2024/01/31 06:50:34;;;;;;;13.07;6.30;;;;;;;-1.73;100.00;102525.75;5007925;28;20116;-65
2024/01/31 06:52:59;;;;;;;14.37;7.13;;;;;;;-1.97;100.00;102473.97;5009494;28;20478;-66
2024/01/31 06:55:25;;;;;;;16.07;8.07;;;;;;;-1.55;100.00;102555.78;5008966;28;20034;-68
2024/01/31 06:57:51;;;;;;;18.10;8.73;;;;;;;-1.52;100.00;102558.72;5009359;28;20018;-66
2024/01/31 07:00:17;;;;;;;16.33;9.43;;;;;;;-1.40;100.00;102553.28;5009141;28;20588;-70
2024/01/31 07:02:43;;;;;;;17.87;9.47;;;;;;;-1.41;100.00;102524.50;5009812;28;20036;-66
2024/01/31 07:05:08;;;;;;;24.50;10.67;;;;;;;-1.16;100.00;102552.72;5010242;28;20030;-65
2024/01/31 07:07:34;;;;;;;20.30;10.33;;;;;;;-1.17;100.00;102553.47;5009790;28;20029;-63
2024/01/31 07:09:59;;;;;;;18.37;9.47;;;;;;;-1.18;100.00;102537.34;5009691;28;20048;-66
2024/01/31 07:12:25;;;;;;;17.03;9.43;;;;;;;-1.17;100.00;102526.50;5009767;28;20044;-64
2024/01/31 07:14:50;;;;;;;17.10;9.40;;;;;;;-1.09;100.00;102544.22;5009800;28;20125;-65
2024/01/31 07:17:16;;;;;;;18.93;9.67;;;;;;;-1.14;100.00;102549.66;5009709;28;20107;-64
2024/01/31 07:19:45;;;;;;;17.43;10.37;;;;;;;-1.26;100.00;102527.94;5009657;28;20128;-64
2024/01/31 07:22:10;;;;;;;15.95;9.30;;;;;;;-1.22;100.00;102550.41;5009723;28;20489;-64
2024/01/31 07:24:37;;;;;;;18.30;8.90;;;;;;;-1.17;100.00;102550.94;5007042;28;20041;-63
2024/01/31 07:27:03;;;;;;;17.07;9.00;;;;;;;-1.10;100.00;102553.44;5010274;28;20028;-64
2024/01/31 07:29:29;;;;;;;16.10;8.40;;;;;;;-0.91;100.00;102554.00;5009251;28;20026;-64
2024/01/31 07:31:55;;;;;;;16.63;8.10;;;;;;;-0.87;100.00;102548.53;5008143;28;20382;-64
2024/01/31 07:34:20;;;;;;;12.40;7.23;;;;;;;-0.79;100.00;102559.56;5012391;28;20033;-65
2024/01/31 07:36:46;;;;;;;11.73;7.50;;;;;;;-0.66;100.00;102541.63;5013189;28;20045;-64
2024/01/31 07:39:12;;;;;;;15.57;8.40;;;;;;;-0.71;100.00;102538.56;5011853;28;20030;-64
2024/01/31 07:41:38;;;;;;;16.60;9.00;;;;;;;-0.60;100.00;102537.22;5013492;28;20061;-66
2024/01/31 07:44:03;;;;;;;13.33;6.43;;;;;;;-0.86;100.00;102483.50;5013119;28;20108;-68
2024/01/31 07:46:31;;;;;;;11.53;5.90;;;;;;;-0.54;99.43;102540.47;5014129;28;20037;-66
2024/01/31 07:48:57;;;;;;;11.63;5.97;;;;;;;-0.42;99.29;102538.44;5012145;28;20034;-69
2024/01/31 07:51:22;;;;;;;11.73;6.40;;;;;;;-0.44;98.58;102541.53;5013088;28;20509;-66
2024/01/31 07:53:48;;;;;;;10.73;6.20;;;;;;;-0.83;99.01;102466.13;5012732;28;20037;-66
2024/01/31 07:56:13;;;;;;;15.93;11.03;;;;;;;-0.22;98.63;102537.28;5012661;28;20038;-65
2024/01/31 07:58:39;;;;;;;12.00;5.80;;;;;;;-0.34;97.67;102532.63;5013090;28;20092;-68
2024/01/31 08:01:06;;;;;;;14.20;8.30;;;;;;;-0.33;98.20;102500.53;5012618;28;20089;-66
2024/01/31 08:03:34;;;;;;;11.13;6.30;;;;;;;0.05;97.68;102533.50;5012619;28;20026;-66
2024/01/31 08:05:59;;;;;;;14.73;6.07;;;;;;;-0.05;97.26;102521.41;5013493;28;20030;-66
2024/01/31 08:08:25;;;;;;;12.13;5.97;;;;;;;-0.23;98.01;102480.53;5012990;28;20030;-65
2024/01/31 08:10:50;;;;;;;11.10;6.63;;;;;;;0.14;96.95;102527.84;5012843;28;20068;-68
2024/01/31 08:13:16;;;;;;;12.33;6.03;;;;;;;0.22;96.52;102520.16;5012916;28;20030;-68
2024/01/31 08:15:41;;;;;;;14.47;7.50;;;;;;;0.47;96.39;102523.78;5013676;28;20078;-67
2024/01/31 08:18:07;;;;;;;11.10;6.83;;;;;;;0.54;95.61;102499.97;5012329;28;20049;-68
2024/01/31 08:20:32;;;;;;;10.50;6.00;;;;;;;0.20;94.90;102436.19;5012276;28;20045;-68
2024/01/31 08:22:58;;;;;;;11.53;6.57;;;;;;;0.64;95.09;102493.50;5012701;28;20038;-69
2024/01/31 08:25:24;;;;;;;12.40;6.40;;;;;;;0.95;93.98;102507.03;5013218;28;20061;-66
2024/01/31 08:27:50;;;;;;;9.70;5.87;;;;;;;0.98;94.51;102509.00;5012412;28;20478;-65
2024/01/31 08:30:21;;;;;;;11.30;6.10;;;;;;;1.09;93.59;102515.25;5012926;28;20034;-65
2024/01/31 08:32:46;;;;;;;11.30;5.90;;;;;;;0.98;93.14;102497.94;5010498;28;20026;-68
2024/01/31 08:35:12;;;;;;;9.82;5.72;;;;;;;1.09;93.27;102475.44;5012963;28;20096;-67
2024/01/31 08:37:38;;;;;;;11.38;6.07;;;;;;;1.47;92.83;102507.38;5012096;28;20037;-66
2024/01/31 08:40:05;;;;;;;10.90;6.18;;;;;;;1.62;92.57;102503.94;5012155;28;20037;-68
2024/01/31 08:42:33;;;;;;;10.23;5.57;;;;;;;1.68;90.41;102508.75;4991454;28;20053;-66
2024/01/31 08:44:59;;;;;;;12.88;6.60;;;;;;;1.73;91.99;102507.59;5011856;28;20121;-66
2024/01/31 08:47:24;;;;;;;12.02;5.78;;;;;;;1.91;91.11;102506.97;5011500;28;20034;-67
2024/01/31 08:49:50;;;;;;;8.73;5.60;;;;;;;2.00;89.82;102507.03;4975477;28;20038;-68
2024/01/31 08:52:16;;;;;;;9.10;5.60;;;;;;;2.02;88.79;102503.00;5025859;28;20500;-65
2024/01/31 08:54:42;;;;;;;10.75;4.90;;;;;;;1.81;89.22;102467.63;5011928;28;20030;-68
2024/01/31 08:57:08;;;;;;;9.30;5.30;;;;;;;2.13;89.03;102490.47;5026918;28;20117;-66
2024/01/31 08:59:33;;;;;;;9.63;5.70;;;;;;;2.36;88.50;102498.84;5011261;28;20472;-70
2024/01/31 09:01:59;;;;;;;9.23;5.57;;;;;;;2.37;89.02;102495.56;5012217;28;20044;-67
2024/01/31 09:04:25;;;;;;;9.50;5.45;;;;;;;2.55;88.14;102483.75;5012304;28;20038;-67
2024/01/31 09:06:50;;;;;;;11.23;6.80;;;;;;;2.71;87.88;102487.88;5012320;28;20064;-65
2024/01/31 09:09:16;;;;;;;9.45;5.43;;;;;;;2.88;86.97;102484.50;5012321;28;20441;-66
2024/01/31 09:11:41;;;;;;;9.32;5.47;;;;;;;3.07;86.16;102482.13;5012216;28;20037;-66
2024/01/31 09:14:07;;;;;;;9.20;5.93;;;;;;;3.04;84.61;102475.06;5012879;28;20088;-66
2024/01/31 09:16:34;;;;;;;9.20;5.90;;;;;;;3.15;84.98;102477.78;5011983;28;20038;-65
2024/01/31 09:19:00;;;;;;;10.35;5.40;;;;;;;3.19;84.47;102451.81;5011513;28;20040;-66
2024/01/31 09:21:27;;;;;;;11.57;5.80;;;;;;;3.42;83.08;102466.84;5011408;28;20034;-66
2024/01/31 09:23:56;;;;;;;10.32;5.72;;;;;;;3.61;82.90;102454.19;5012060;28;20037;-67
2024/01/31 09:26:22;;;;;;;8.52;5.28;;;;;;;3.69;81.50;102460.09;5011774;28;20091;-66
2024/01/31 09:28:47;;;;;;;8.80;5.53;;;;;;;3.78;81.68;102447.28;5011833;28;20030;-65
2024/01/31 09:31:23;;;;;;;11.43;6.72;;;;;;;3.89;81.20;102446.66;5026892;28;20037;-66
2024/01/31 09:33:51;;;;;;;9.30;5.40;;;;;;;3.93;80.47;102437.63;5011687;28;20096;-65
2024/01/31 09:36:19;;;;;;;9.55;5.55;;;;;;;4.03;79.95;102441.19;5012045;28;20076;-66
2024/01/31 09:38:47;;;;;;;8.85;5.25;;;;;;;4.05;79.60;102432.03;5011337;28;20512;-66
2024/01/31 09:41:15;;;;;;;9.02;5.32;;;;;;;4.26;79.82;102422.03;5011463;28;20121;-66
2024/01/31 09:43:41;;;;;;;7.57;5.28;;;;;;;4.51;77.68;102419.19;5009846;28;20032;-67
2024/01/31 09:46:07;;;;;;;8.88;5.57;;;;;;;4.78;77.41;102417.41;5011787;28;20030;-65
2024/01/31 09:48:33;;;;;;;10.55;4.93;;;;;;;4.90;75.55;102421.09;5011536;28;20512;-66
2024/01/31 09:51:02;;;;;;;9.38;5.80;;;;;;;4.97;77.24;102415.78;5011120;28;20045;-66
2024/01/31 09:53:33;;;;;;;9.40;5.65;;;;;;;5.14;76.98;102412.16;5011619;28;20030;-65
2024/01/31 09:55:59;;;;;;;9.43;4.88;;;;;;;5.23;76.37;102403.50;5010425;28;20040;-65
2024/01/31 09:58:25;;;;;;;7.82;4.53;;;;;;;5.34;75.98;102408.81;5011498;28;20470;-66
2024/01/31 10:00:51;;;;;;;9.30;4.82;;;;;;;5.26;75.28;102373.97;5010646;28;20116;-67
2024/01/31 10:03:17;;;;;;;9.18;4.95;;;;;;;5.45;74.06;102381.59;5011143;28;20026;-67
2024/01/31 10:05:42;;;;;;;8.75;5.18;;;;;;;5.53;74.30;102396.75;5011880;28;20087;-65
2024/01/31 10:08:08;;;;;;;12.13;6.10;;;;;;;5.63;74.90;102391.69;5011087;28;20029;-66
2024/01/31 10:10:33;;;;;;;10.07;5.90;;;;;;;5.66;74.17;102374.91;5011538;28;20117;-66
2024/01/31 10:12:59;;;;;;;8.80;4.68;;;;;;;5.93;73.41;102382.31;5011732;28;20033;-65
2024/01/31 10:15:25;;;;;;;8.65;4.82;;;;;;;6.01;73.31;102375.31;5010747;28;20429;-65
2024/01/31 10:17:50;;;;;;;11.48;5.75;;;;;;;5.67;73.63;102299.84;5008497;28;20057;-66
2024/01/31 10:20:16;;;;;;;8.50;4.88;;;;;;;6.14;72.89;102360.22;5010847;28;20418;-66
2024/01/31 10:22:44;;;;;;;9.88;5.07;;;;;;;6.23;72.73;102362.66;5010701;28;20030;-66
2024/01/31 10:25:15;;;;;;;12.65;6.70;;;;;;;6.33;72.35;102362.69;5010292;28;20022;-67
2024/01/31 10:27:40;;;;;;;24.77;7.70;;;;;;;6.44;72.35;102355.88;5010952;28;20068;-67
2024/01/31 10:30:10;;;;;;;9.20;5.18;;;;;;;6.57;72.75;102347.56;5010333;28;20065;-66
2024/01/31 10:32:40;;;;;;;11.30;5.07;;;;;;;6.58;72.28;102329.72;4992845;28;20041;-66
2024/01/31 10:35:07;;;;;;;8.93;4.47;;;;;;;6.66;71.32;102343.19;5010492;28;20030;-67
2024/01/31 10:37:32;;;;;;;7.20;4.35;;;;;;;6.52;72.08;102335.97;5010572;28;20120;-66
2024/01/31 10:39:58;;;;;;;5.50;3.30;;;;;;;6.64;70.99;102337.94;5010404;28;20195;-69
2024/01/31 10:42:25;;;;;;;6.80;4.10;;;;;;;6.58;70.12;102321.09;5010562;28;20465;-67
2024/01/31 10:44:52;;;;;;;6.45;3.70;;;;;;;6.79;70.32;102327.09;5008941;28;20038;-65
2024/01/31 10:47:18;;;;;;;7.05;4.32;;;;;;;6.83;69.73;102321.47;5010707;28;20069;-66
2024/01/31 10:49:44;;;;;;;5.88;3.50;;;;;;;6.89;69.48;102314.28;5010483;28;20509;-67
2024/01/31 10:52:15;;;;;;;5.88;3.67;;;;;;;7.01;68.64;102314.34;4988261;28;20050;-67
2024/01/31 10:54:49;;;;;;;6.25;3.50;;;;;;;7.07;68.71;102311.41;4988859;28;20047;-66
2024/01/31 10:57:16;;;;;;;6.55;3.45;;;;;;;6.98;68.03;102311.56;4988491;28;20117;-66
2024/01/31 10:59:41;;;;;;;7.85;4.82;;;;;;;6.76;67.72;102308.91;4988229;28;20793;-66
2024/01/31 11:02:17;;;;;;;6.32;3.80;;;;;;;6.87;67.08;102300.41;4988653;28;20117;-66
2024/01/31 11:04:46;;;;;;;6.57;3.70;;;;;;;6.63;69.07;102305.31;4988129;28;20042;-68
2024/01/31 11:07:21;;;;;;;6.90;3.10;;;;;;;6.84;68.06;102295.03;4988253;28;20034;-66
2024/01/31 11:09:48;;;;;;;4.95;3.28;;;;;;;6.95;69.02;102301.94;4988025;28;20486;-66
2024/01/31 11:12:14;;;;;;;6.15;3.88;;;;;;;7.04;70.13;102288.03;4988472;28;20121;-66